sensor_id;sensor_type;location;lat;lon;timestamp;pressure;altitude;pressure_sealevel;temperature;humidity
62031;BME280;62035;52.094;5.112;2023-04-10T00:00:03;102145.66;;;10.04;100.00
62031;BME280;62035;52.094;5.112;2023-04-10T00:02:32;102143.22;;;10.01;100.00
62031;BME280;62035;52.094;5.112;2023-04-10T00:05:01;102146.69;;;10.15;100.00
62031;BME280;62035;52.094;5.112;2023-04-10T00:07:29;102144.34;;;9.99;100.00
62031;BME280;62035;52.094;5.112;2023-04-10T00:09:56;102133.53;;;9.89;100.00
62031;BME280;62035;52.094;5.112;2023-04-10T00:12:24;102136.69;;;9.94;100.00
62031;BME280;62035;52.094;5.112;2023-04-10T00:14:52;102130.31;;;9.97;100.00
62031;BME280;62035;52.094;5.112;2023-04-10T00:17:19;102127.59;;;9.86;100.00
62031;BME280;62035;52.094;5.112;2023-04-10T00:19:47;102122.66;;;9.92;100.00
62031;BME280;62035;52.094;5.112;2023-04-10T00:22:16;102110.09;;;9.94;100.00
62031;BME280;62035;52.094;5.112;2023-04-10T00:24:44;102114.13;;;9.76;100.00
62031;BME280;62035;52.094;5.112;2023-04-10T00:27:11;102110.25;;;9.80;100.00
62031;BME280;62035;52.094;5.112;2023-04-10T00:29:39;102105.91;;;9.79;100.00
62031;BME280;62035;52.094;5.112;2023-04-10T00:32:07;102098.38;;;9.73;100.00
62031;BME280;62035;52.094;5.112;2023-04-10T00:34:34;102096.69;;;9.72;100.00
62031;BME280;62035;52.094;5.112;2023-04-10T00:37:02;102095.44;;;9.65;100.00
62031;BME280;62035;52.094;5.112;2023-04-10T00:39:31;102097.31;;;9.52;100.00
62031;BME280;62035;52.094;5.112;2023-04-10T00:41:58;102092.53;;;9.57;100.00
62031;BME280;62035;52.094;5.112;2023-04-10T00:44:26;102096.16;;;9.67;100.00
62031;BME280;62035;52.094;5.112;2023-04-10T00:46:54;102089.00;;;9.56;100.00
62031;BME280;62035;52.094;5.112;2023-04-10T00:49:21;102084.28;;;9.60;100.00
62031;BME280;62035;52.094;5.112;2023-04-10T00:51:49;102083.91;;;9.77;100.00
62031;BME280;62035;52.094;5.112;2023-04-10T00:54:17;102081.91;;;9.68;100.00
62031;BME280;62035;52.094;5.112;2023-04-10T00:56:46;102077.53;;;9.56;100.00
62031;BME280;62035;52.094;5.112;2023-04-10T00:59:15;102077.88;;;9.51;100.00
62031;BME280;62035;52.094;5.112;2023-04-10T01:01:43;102082.16;;;9.41;100.00
62031;BME280;62035;52.094;5.112;2023-04-10T01:04:12;102084.38;;;9.34;100.00
62031;BME280;62035;52.094;5.112;2023-04-10T01:06:52;102072.56;;;9.51;100.00
62031;BME280;62035;52.094;5.112;2023-04-10T01:09:34;102075.13;;;9.40;100.00
62031;BME280;62035;52.094;5.112;2023-04-10T01:12:19;102070.47;;;9.31;100.00
62031;BME280;62035;52.094;5.112;2023-04-10T01:15:03;102070.59;;;9.29;100.00
62031;BME280;62035;52.094;5.112;2023-04-10T01:17:40;102055.38;;;9.31;100.00
62031;BME280;62035;52.094;5.112;2023-04-10T01:20:15;102061.09;;;9.14;100.00
62031;BME280;62035;52.094;5.112;2023-04-10T01:23:03;102033.06;;;9.10;100.00
62031;BME280;62035;52.094;5.112;2023-04-10T01:25:42;102051.16;;;9.29;100.00
62031;BME280;62035;52.094;5.112;2023-04-10T01:31:31;102045.31;;;9.24;100.00
62031;BME280;62035;52.094;5.112;2023-04-10T01:34:06;102034.22;;;9.19;100.00
62031;BME280;62035;52.094;5.112;2023-04-10T01:36:40;102039.97;;;9.36;100.00
62031;BME280;62035;52.094;5.112;2023-04-10T01:39:17;102021.53;;;9.22;100.00
62031;BME280;62035;52.094;5.112;2023-04-10T01:41:47;102025.97;;;9.22;100.00
62031;BME280;62035;52.094;5.112;2023-04-10T01:44:22;102030.44;;;9.21;100.00
62031;BME280;62035;52.094;5.112;2023-04-10T01:46:54;102027.00;;;9.08;100.00
62031;BME280;62035;52.094;5.112;2023-04-10T01:49:26;102030.41;;;9.10;100.00
62031;BME280;62035;52.094;5.112;2023-04-10T01:51:55;102023.69;;;9.17;100.00
62031;BME280;62035;52.094;5.112;2023-04-10T01:54:27;102022.44;;;9.10;100.00
62031;BME280;62035;52.094;5.112;2023-04-10T01:56:57;102020.53;;;8.99;100.00
62031;BME280;62035;52.094;5.112;2023-04-10T01:59:28;102017.91;;;9.23;100.00
62031;BME280;62035;52.094;5.112;2023-04-10T02:01:56;102022.00;;;9.16;100.00
62031;BME280;62035;52.094;5.112;2023-04-10T02:04:24;102014.06;;;9.03;100.00
62031;BME280;62035;52.094;5.112;2023-04-10T02:07:00;102017.28;;;9.20;100.00
62031;BME280;62035;52.094;5.112;2023-04-10T02:09:36;102022.75;;;9.06;100.00
62031;BME280;62035;52.094;5.112;2023-04-10T02:12:15;102020.50;;;9.12;100.00
62031;BME280;62035;52.094;5.112;2023-04-10T02:14:50;102018.75;;;9.24;100.00
62031;BME280;62035;52.094;5.112;2023-04-10T02:17:25;102016.00;;;9.25;100.00
62031;BME280;62035;52.094;5.112;2023-04-10T02:19:56;102012.66;;;9.11;100.00
62031;BME280;62035;52.094;5.112;2023-04-10T02:22:25;102023.84;;;9.27;100.00
62031;BME280;62035;52.094;5.112;2023-04-10T02:24:53;102013.44;;;9.24;100.00
62031;BME280;62035;52.094;5.112;2023-04-10T02:27:26;102011.41;;;9.27;100.00
62031;BME280;62035;52.094;5.112;2023-04-10T02:29:57;102008.94;;;9.37;100.00
62031;BME280;62035;52.094;5.112;2023-04-10T02:32:24;101992.25;;;9.35;100.00
62031;BME280;62035;52.094;5.112;2023-04-10T02:34:52;102007.19;;;9.49;100.00
62031;BME280;62035;52.094;5.112;2023-04-10T02:37:20;102007.97;;;9.38;100.00
62031;BME280;62035;52.094;5.112;2023-04-10T02:39:48;102010.47;;;9.52;100.00
62031;BME280;62035;52.094;5.112;2023-04-10T02:42:16;102008.22;;;9.59;100.00
62031;BME280;62035;52.094;5.112;2023-04-10T02:44:43;102005.41;;;9.60;100.00
62031;BME280;62035;52.094;5.112;2023-04-10T02:47:12;102003.84;;;9.58;100.00
62031;BME280;62035;52.094;5.112;2023-04-10T02:49:41;102002.72;;;9.49;100.00
62031;BME280;62035;52.094;5.112;2023-04-10T02:52:09;102015.44;;;9.57;100.00
62031;BME280;62035;52.094;5.112;2023-04-10T02:54:36;102002.09;;;9.46;100.00
62031;BME280;62035;52.094;5.112;2023-04-10T02:57:04;102011.81;;;9.58;100.00
62031;BME280;62035;52.094;5.112;2023-04-10T02:59:32;102016.22;;;9.70;100.00
62031;BME280;62035;52.094;5.112;2023-04-10T03:01:59;102016.22;;;9.70;100.00
62031;BME280;62035;52.094;5.112;2023-04-10T03:04:30;102012.81;;;9.68;100.00
62031;BME280;62035;52.094;5.112;2023-04-10T03:06:58;102011.75;;;9.70;100.00
62031;BME280;62035;52.094;5.112;2023-04-10T03:09:26;102013.75;;;9.56;100.00
62031;BME280;62035;52.094;5.112;2023-04-10T03:11:53;102015.97;;;9.73;100.00
62031;BME280;62035;52.094;5.112;2023-04-10T03:14:21;101990.19;;;9.51;100.00
62031;BME280;62035;52.094;5.112;2023-04-10T03:16:49;102010.88;;;9.70;100.00
62031;BME280;62035;52.094;5.112;2023-04-10T03:19:16;102013.81;;;9.78;100.00
62031;BME280;62035;52.094;5.112;2023-04-10T03:21:45;102009.94;;;9.71;100.00
62031;BME280;62035;52.094;5.112;2023-04-10T03:24:13;102007.72;;;9.65;100.00
62031;BME280;62035;52.094;5.112;2023-04-10T03:26:41;102005.56;;;9.70;100.00
62031;BME280;62035;52.094;5.112;2023-04-10T03:29:08;101997.81;;;9.56;100.00
62031;BME280;62035;52.094;5.112;2023-04-10T03:31:36;101997.22;;;9.63;100.00
62031;BME280;62035;52.094;5.112;2023-04-10T03:34:03;101992.00;;;9.62;100.00
62031;BME280;62035;52.094;5.112;2023-04-10T03:36:31;101987.59;;;9.74;100.00
62031;BME280;62035;52.094;5.112;2023-04-10T03:39:00;101989.59;;;9.59;100.00
62031;BME280;62035;52.094;5.112;2023-04-10T03:41:27;101985.84;;;9.61;100.00
62031;BME280;62035;52.094;5.112;2023-04-10T03:43:56;101989.31;;;9.51;100.00
62031;BME280;62035;52.094;5.112;2023-04-10T03:46:23;101987.41;;;9.64;100.00
62031;BME280;62035;52.094;5.112;2023-04-10T03:48:51;101981.53;;;9.72;100.00
62031;BME280;62035;52.094;5.112;2023-04-10T03:51:18;101979.66;;;9.50;100.00
62031;BME280;62035;52.094;5.112;2023-04-10T03:53:48;101971.47;;;9.53;100.00
62031;BME280;62035;52.094;5.112;2023-04-10T03:56:17;101975.59;;;9.57;100.00
62031;BME280;62035;52.094;5.112;2023-04-10T03:58:45;101959.59;;;9.46;100.00
62031;BME280;62035;52.094;5.112;2023-04-10T04:01:13;101961.16;;;9.48;100.00
62031;BME280;62035;52.094;5.112;2023-04-10T04:03:40;101968.09;;;9.62;100.00
62031;BME280;62035;52.094;5.112;2023-04-10T04:06:08;101953.94;;;9.50;100.00
62031;BME280;62035;52.094;5.112;2023-04-10T04:08:36;101961.00;;;9.39;100.00
62031;BME280;62035;52.094;5.112;2023-04-10T04:11:04;101955.00;;;9.24;100.00
62031;BME280;62035;52.094;5.112;2023-04-10T04:13:34;101963.16;;;9.33;100.00
62031;BME280;62035;52.094;5.112;2023-04-10T04:16:01;101953.25;;;9.59;100.00
62031;BME280;62035;52.094;5.112;2023-04-10T04:18:29;101955.50;;;9.53;100.00
62031;BME280;62035;52.094;5.112;2023-04-10T04:20:57;101952.25;;;9.49;100.00
62031;BME280;62035;52.094;5.112;2023-04-10T04:23:24;101958.69;;;9.58;100.00
62031;BME280;62035;52.094;5.112;2023-04-10T04:25:52;101951.66;;;9.57;100.00
62031;BME280;62035;52.094;5.112;2023-04-10T04:28:21;101945.84;;;9.52;100.00
62031;BME280;62035;52.094;5.112;2023-04-10T04:30:50;101945.28;;;9.59;100.00
62031;BME280;62035;52.094;5.112;2023-04-10T04:33:18;101938.38;;;9.68;100.00
62031;BME280;62035;52.094;5.112;2023-04-10T04:35:46;101943.03;;;9.42;100.00
62031;BME280;62035;52.094;5.112;2023-04-10T04:38:13;101945.78;;;9.41;100.00
62031;BME280;62035;52.094;5.112;2023-04-10T04:40:41;101943.09;;;9.29;100.00
62031;BME280;62035;52.094;5.112;2023-04-10T04:43:09;101945.22;;;9.24;100.00
62031;BME280;62035;52.094;5.112;2023-04-10T04:45:36;101941.41;;;9.05;100.00
62031;BME280;62035;52.094;5.112;2023-04-10T04:48:05;101935.47;;;9.01;100.00
62031;BME280;62035;52.094;5.112;2023-04-10T04:50:33;101935.53;;;9.12;100.00
62031;BME280;62035;52.094;5.112;2023-04-10T04:53:01;101937.47;;;9.10;100.00
62031;BME280;62035;52.094;5.112;2023-04-10T04:55:29;101934.50;;;9.02;100.00
62031;BME280;62035;52.094;5.112;2023-04-10T04:57:56;101936.31;;;9.01;100.00
62031;BME280;62035;52.094;5.112;2023-04-10T05:00:24;101943.31;;;8.79;100.00
62031;BME280;62035;52.094;5.112;2023-04-10T05:02:51;101940.66;;;8.79;100.00
62031;BME280;62035;52.094;5.112;2023-04-10T05:05:20;101934.75;;;8.62;100.00
62031;BME280;62035;52.094;5.112;2023-04-10T05:07:48;101936.13;;;8.55;100.00
62031;BME280;62035;52.094;5.112;2023-04-10T05:10:15;101932.00;;;8.64;100.00
62031;BME280;62035;52.094;5.112;2023-04-10T05:12:43;101938.25;;;8.63;100.00
62031;BME280;62035;52.094;5.112;2023-04-10T05:15:11;101936.00;;;8.69;100.00
62031;BME280;62035;52.094;5.112;2023-04-10T05:17:38;101936.25;;;8.54;100.00
62031;BME280;62035;52.094;5.112;2023-04-10T05:20:07;101933.38;;;8.57;100.00
62031;BME280;62035;52.094;5.112;2023-04-10T05:22:37;101932.41;;;8.71;100.00
62031;BME280;62035;52.094;5.112;2023-04-10T05:25:05;101918.72;;;8.64;100.00
62031;BME280;62035;52.094;5.112;2023-04-10T05:27:33;101915.53;;;8.72;100.00
62031;BME280;62035;52.094;5.112;2023-04-10T05:30:02;101929.34;;;8.88;100.00
62031;BME280;62035;52.094;5.112;2023-04-10T05:32:30;101929.47;;;8.86;100.00
62031;BME280;62035;52.094;5.112;2023-04-10T05:34:58;101937.94;;;8.91;100.00
62031;BME280;62035;52.094;5.112;2023-04-10T05:37:25;101933.06;;;8.85;100.00
62031;BME280;62035;52.094;5.112;2023-04-10T05:39:54;101930.31;;;8.87;100.00
62031;BME280;62035;52.094;5.112;2023-04-10T05:42:22;101922.00;;;8.91;100.00
62031;BME280;62035;52.094;5.112;2023-04-10T05:44:50;101929.88;;;8.93;100.00
62031;BME280;62035;52.094;5.112;2023-04-10T05:47:18;101926.25;;;8.94;100.00
62031;BME280;62035;52.094;5.112;2023-04-10T05:49:45;101939.44;;;8.83;100.00
62031;BME280;62035;52.094;5.112;2023-04-10T05:52:13;101918.13;;;9.08;100.00
62031;BME280;62035;52.094;5.112;2023-04-10T05:54:41;101925.59;;;9.03;100.00
62031;BME280;62035;52.094;5.112;2023-04-10T05:57:10;101927.59;;;9.23;100.00
62031;BME280;62035;52.094;5.112;2023-04-10T05:59:37;101919.84;;;9.20;100.00
62031;BME280;62035;52.094;5.112;2023-04-10T06:02:05;101915.53;;;9.19;100.00
62031;BME280;62035;52.094;5.112;2023-04-10T06:04:33;101909.28;;;9.31;100.00
62031;BME280;62035;52.094;5.112;2023-04-10T06:07:00;101902.22;;;9.43;100.00
62031;BME280;62035;52.094;5.112;2023-04-10T06:09:28;101896.31;;;9.51;100.00
62031;BME280;62035;52.094;5.112;2023-04-10T06:11:55;101897.97;;;9.41;100.00
62031;BME280;62035;52.094;5.112;2023-04-10T06:14:24;101891.25;;;9.48;100.00
62031;BME280;62035;52.094;5.112;2023-04-10T06:16:52;101887.41;;;9.63;100.00
62031;BME280;62035;52.094;5.112;2023-04-10T06:19:20;101896.81;;;9.67;100.00
62031;BME280;62035;52.094;5.112;2023-04-10T06:21:47;101890.78;;;9.65;100.00
62031;BME280;62035;52.094;5.112;2023-04-10T06:24:15;101876.06;;;9.72;100.00
62031;BME280;62035;52.094;5.112;2023-04-10T06:26:43;101873.63;;;9.69;100.00
62031;BME280;62035;52.094;5.112;2023-04-10T06:29:11;101865.19;;;9.75;100.00
62031;BME280;62035;52.094;5.112;2023-04-10T06:31:39;101867.50;;;10.02;100.00
62031;BME280;62035;52.094;5.112;2023-04-10T06:34:07;101866.91;;;9.98;100.00
62031;BME280;62035;52.094;5.112;2023-04-10T06:36:35;101860.38;;;10.14;100.00
62031;BME280;62035;52.094;5.112;2023-04-10T06:39:03;101856.75;;;10.03;100.00
62031;BME280;62035;52.094;5.112;2023-04-10T06:41:31;101856.53;;;9.95;100.00
62031;BME280;62035;52.094;5.112;2023-04-10T06:43:59;101836.91;;;10.08;100.00
62031;BME280;62035;52.094;5.112;2023-04-10T06:46:26;101832.69;;;10.05;100.00
62031;BME280;62035;52.094;5.112;2023-04-10T06:48:55;101836.72;;;10.22;100.00
62031;BME280;62035;52.094;5.112;2023-04-10T06:51:23;101831.88;;;10.27;100.00
62031;BME280;62035;52.094;5.112;2023-04-10T06:53:50;101824.59;;;10.29;100.00
62031;BME280;62035;52.094;5.112;2023-04-10T06:56:18;101826.06;;;10.33;100.00
62031;BME280;62035;52.094;5.112;2023-04-10T06:58:46;101806.72;;;10.31;100.00
62031;BME280;62035;52.094;5.112;2023-04-10T07:01:13;101808.59;;;10.40;100.00
62031;BME280;62035;52.094;5.112;2023-04-10T07:03:42;101808.47;;;10.53;100.00
62031;BME280;62035;52.094;5.112;2023-04-10T07:06:11;101804.91;;;10.63;100.00
62031;BME280;62035;52.094;5.112;2023-04-10T07:08:39;101812.16;;;10.73;100.00
62031;BME280;62035;52.094;5.112;2023-04-10T07:11:07;101799.00;;;10.92;100.00
62031;BME280;62035;52.094;5.112;2023-04-10T07:13:34;101800.84;;;10.80;100.00
62031;BME280;62035;52.094;5.112;2023-04-10T07:16:04;101794.91;;;11.09;100.00
62031;BME280;62035;52.094;5.112;2023-04-10T07:18:33;101793.19;;;11.19;100.00
62031;BME280;62035;52.094;5.112;2023-04-10T07:21:09;101773.03;;;11.05;100.00
62031;BME280;62035;52.094;5.112;2023-04-10T07:23:39;101779.13;;;11.38;100.00
62031;BME280;62035;52.094;5.112;2023-04-10T07:26:07;101774.75;;;11.36;100.00
62031;BME280;62035;52.094;5.112;2023-04-10T07:28:34;101764.59;;;11.51;100.00
62031;BME280;62035;52.094;5.112;2023-04-10T07:31:03;101767.56;;;11.79;100.00
62031;BME280;62035;52.094;5.112;2023-04-10T07:33:31;101768.31;;;11.69;100.00
62031;BME280;62035;52.094;5.112;2023-04-10T07:35:59;101759.66;;;12.17;100.00
62031;BME280;62035;52.094;5.112;2023-04-10T07:38:27;101765.00;;;12.17;100.00
62031;BME280;62035;52.094;5.112;2023-04-10T07:40:57;101754.31;;;12.08;100.00
62031;BME280;62035;52.094;5.112;2023-04-10T07:43:25;101757.25;;;11.95;100.00
62031;BME280;62035;52.094;5.112;2023-04-10T07:45:52;101743.50;;;12.09;100.00
62031;BME280;62035;52.094;5.112;2023-04-10T07:48:20;101739.00;;;12.10;100.00
62031;BME280;62035;52.094;5.112;2023-04-10T07:50:48;101745.06;;;12.21;100.00
62031;BME280;62035;52.094;5.112;2023-04-10T07:53:15;101745.34;;;12.18;100.00
62031;BME280;62035;52.094;5.112;2023-04-10T07:55:44;101737.63;;;12.44;100.00
62031;BME280;62035;52.094;5.112;2023-04-10T07:58:15;101745.91;;;12.41;100.00
62031;BME280;62035;52.094;5.112;2023-04-10T08:00:42;101730.34;;;12.27;100.00
62031;BME280;62035;52.094;5.112;2023-04-10T08:03:10;101727.53;;;12.57;100.00
62031;BME280;62035;52.094;5.112;2023-04-10T08:05:38;101728.66;;;12.55;100.00
62031;BME280;62035;52.094;5.112;2023-04-10T08:08:06;101720.78;;;12.44;100.00
62031;BME280;62035;52.094;5.112;2023-04-10T08:10:35;101722.47;;;12.54;100.00
62031;BME280;62035;52.094;5.112;2023-04-10T08:13:03;101722.06;;;12.68;100.00
62031;BME280;62035;52.094;5.112;2023-04-10T08:15:33;101718.94;;;12.92;100.00
62031;BME280;62035;52.094;5.112;2023-04-10T08:18:00;101715.13;;;12.95;100.00
62031;BME280;62035;52.094;5.112;2023-04-10T08:20:28;101705.84;;;13.18;100.00
62031;BME280;62035;52.094;5.112;2023-04-10T08:23:01;101696.22;;;13.25;100.00
62031;BME280;62035;52.094;5.112;2023-04-10T08:25:29;101693.84;;;13.22;100.00
62031;BME280;62035;52.094;5.112;2023-04-10T08:27:57;101691.16;;;13.22;100.00
62031;BME280;62035;52.094;5.112;2023-04-10T08:30:25;101686.13;;;13.56;100.00
62031;BME280;62035;52.094;5.112;2023-04-10T08:32:54;101691.69;;;13.35;100.00
62031;BME280;62035;52.094;5.112;2023-04-10T08:35:21;101675.88;;;13.52;100.00
62031;BME280;62035;52.094;5.112;2023-04-10T08:37:49;101671.13;;;13.46;100.00
62031;BME280;62035;52.094;5.112;2023-04-10T08:40:17;101677.38;;;13.27;100.00
62031;BME280;62035;52.094;5.112;2023-04-10T08:42:44;101671.47;;;13.23;100.00
62031;BME280;62035;52.094;5.112;2023-04-10T08:45:12;101664.66;;;13.39;100.00
62031;BME280;62035;52.094;5.112;2023-04-10T08:47:41;101678.13;;;13.74;100.00
62031;BME280;62035;52.094;5.112;2023-04-10T08:50:14;101676.56;;;13.81;100.00
62031;BME280;62035;52.094;5.112;2023-04-10T08:52:45;101668.63;;;13.62;100.00
62031;BME280;62035;52.094;5.112;2023-04-10T08:55:16;101673.19;;;13.52;100.00
62031;BME280;62035;52.094;5.112;2023-04-10T08:57:46;101669.94;;;13.58;100.00
62031;BME280;62035;52.094;5.112;2023-04-10T09:00:15;101664.88;;;13.55;100.00
62031;BME280;62035;52.094;5.112;2023-04-10T09:02:43;101658.84;;;13.53;100.00
62031;BME280;62035;52.094;5.112;2023-04-10T09:05:12;101654.91;;;13.10;100.00
62031;BME280;62035;52.094;5.112;2023-04-10T09:07:40;101651.53;;;13.18;100.00
62031;BME280;62035;52.094;5.112;2023-04-10T09:10:08;101641.19;;;13.32;100.00
62031;BME280;62035;52.094;5.112;2023-04-10T09:12:43;101649.59;;;13.65;100.00
62031;BME280;62035;52.094;5.112;2023-04-10T09:15:12;101637.03;;;13.48;100.00
62031;BME280;62035;52.094;5.112;2023-04-10T09:17:54;101637.50;;;13.88;100.00
62031;BME280;62035;52.094;5.112;2023-04-10T09:20:27;101625.97;;;13.88;100.00
62031;BME280;62035;52.094;5.112;2023-04-10T09:22:55;101629.09;;;13.83;100.00
62031;BME280;62035;52.094;5.112;2023-04-10T09:25:31;101620.28;;;13.73;100.00
62031;BME280;62035;52.094;5.112;2023-04-10T09:28:01;101616.09;;;13.88;100.00
62031;BME280;62035;52.094;5.112;2023-04-10T09:30:35;101619.28;;;14.10;100.00
62031;BME280;62035;52.094;5.112;2023-04-10T09:33:21;101609.59;;;14.09;100.00
62031;BME280;62035;52.094;5.112;2023-04-10T09:35:51;101602.56;;;14.08;100.00
62031;BME280;62035;52.094;5.112;2023-04-10T09:38:20;101602.56;;;14.25;100.00
62031;BME280;62035;52.094;5.112;2023-04-10T09:40:48;101594.03;;;14.48;100.00
62031;BME280;62035;52.094;5.112;2023-04-10T09:43:17;101600.06;;;14.67;100.00
62031;BME280;62035;52.094;5.112;2023-04-10T09:45:46;101569.63;;;14.51;100.00
62031;BME280;62035;52.094;5.112;2023-04-10T09:48:15;101584.66;;;14.70;100.00
62031;BME280;62035;52.094;5.112;2023-04-10T09:50:44;101591.75;;;14.79;100.00
62031;BME280;62035;52.094;5.112;2023-04-10T09:53:14;101589.88;;;14.71;100.00
62031;BME280;62035;52.094;5.112;2023-04-10T09:55:45;101576.28;;;14.47;100.00
62031;BME280;62035;52.094;5.112;2023-04-10T09:58:15;101570.19;;;14.37;100.00
62031;BME280;62035;52.094;5.112;2023-04-10T10:00:45;101568.69;;;14.60;100.00
62031;BME280;62035;52.094;5.112;2023-04-10T10:03:15;101559.50;;;14.96;100.00
62031;BME280;62035;52.094;5.112;2023-04-10T10:05:44;101555.16;;;14.95;100.00
62031;BME280;62035;52.094;5.112;2023-04-10T10:08:17;101562.59;;;15.10;100.00
62031;BME280;62035;52.094;5.112;2023-04-10T10:10:47;101557.78;;;15.29;100.00
62031;BME280;62035;52.094;5.112;2023-04-10T10:13:21;101550.47;;;15.40;100.00
62031;BME280;62035;52.094;5.112;2023-04-10T10:15:59;101535.28;;;15.56;100.00
62031;BME280;62035;52.094;5.112;2023-04-10T10:18:38;101538.81;;;15.23;100.00
62031;BME280;62035;52.094;5.112;2023-04-10T10:21:12;101538.63;;;15.08;100.00
62031;BME280;62035;52.094;5.112;2023-04-10T10:23:42;101522.06;;;15.21;100.00
62031;BME280;62035;52.094;5.112;2023-04-10T10:26:11;101528.84;;;15.41;100.00
62031;BME280;62035;52.094;5.112;2023-04-10T10:28:40;101511.63;;;16.09;100.00
62031;BME280;62035;52.094;5.112;2023-04-10T10:31:12;101506.59;;;16.14;100.00
62031;BME280;62035;52.094;5.112;2023-04-10T10:33:42;101517.69;;;16.11;100.00
62031;BME280;62035;52.094;5.112;2023-04-10T10:36:12;101499.03;;;15.52;100.00
62031;BME280;62035;52.094;5.112;2023-04-10T10:38:51;101509.91;;;15.43;100.00
62031;BME280;62035;52.094;5.112;2023-04-10T10:41:28;101493.19;;;15.73;100.00
62031;BME280;62035;52.094;5.112;2023-04-10T10:44:06;101493.19;;;16.06;100.00
62031;BME280;62035;52.094;5.112;2023-04-10T10:46:43;101498.38;;;16.07;100.00
62031;BME280;62035;52.094;5.112;2023-04-10T10:49:15;101483.28;;;16.06;100.00
62031;BME280;62035;52.094;5.112;2023-04-10T10:51:43;101482.19;;;16.64;100.00
62031;BME280;62035;52.094;5.112;2023-04-10T10:54:28;101461.44;;;16.81;100.00
62031;BME280;62035;52.094;5.112;2023-04-10T10:56:56;101465.28;;;16.86;100.00
62031;BME280;62035;52.094;5.112;2023-04-10T10:59:52;101447.13;;;16.41;100.00
62031;BME280;62035;52.094;5.112;2023-04-10T11:02:22;101458.22;;;16.85;100.00
62031;BME280;62035;52.094;5.112;2023-04-10T11:04:49;101445.28;;;16.89;100.00
62031;BME280;62035;52.094;5.112;2023-04-10T11:07:17;101436.47;;;17.26;100.00
62031;BME280;62035;52.094;5.112;2023-04-10T11:09:49;101428.22;;;17.05;100.00
62031;BME280;62035;52.094;5.112;2023-04-10T11:12:19;101448.59;;;16.99;100.00
62031;BME280;62035;52.094;5.112;2023-04-10T11:14:59;101422.50;;;16.77;100.00
62031;BME280;62035;52.094;5.112;2023-04-10T11:17:49;101422.22;;;16.94;100.00
62031;BME280;62035;52.094;5.112;2023-04-10T11:20:19;101420.06;;;17.44;100.00
62031;BME280;62035;52.094;5.112;2023-04-10T11:23:09;101420.13;;;17.13;100.00
62031;BME280;62035;52.094;5.112;2023-04-10T11:25:49;101408.81;;;17.40;100.00
62031;BME280;62035;52.094;5.112;2023-04-10T11:28:34;101394.72;;;17.15;100.00
62031;BME280;62035;52.094;5.112;2023-04-10T11:31:18;101395.38;;;17.40;100.00
62031;BME280;62035;52.094;5.112;2023-04-10T11:33:48;101385.97;;;17.59;100.00
62031;BME280;62035;52.094;5.112;2023-04-10T11:36:18;101374.97;;;17.46;100.00
62031;BME280;62035;52.094;5.112;2023-04-10T11:38:53;101385.03;;;17.89;100.00
62031;BME280;62035;52.094;5.112;2023-04-10T11:41:30;101383.47;;;17.95;100.00
62031;BME280;62035;52.094;5.112;2023-04-10T11:44:00;101389.59;;;18.18;100.00
62031;BME280;62035;52.094;5.112;2023-04-10T11:46:29;101371.19;;;18.07;100.00
62031;BME280;62035;52.094;5.112;2023-04-10T11:48:59;101363.59;;;18.25;100.00
62031;BME280;62035;52.094;5.112;2023-04-10T11:51:28;101366.84;;;18.36;100.00
62031;BME280;62035;52.094;5.112;2023-04-10T11:54:06;101360.84;;;18.40;100.00
62031;BME280;62035;52.094;5.112;2023-04-10T11:56:39;101351.03;;;17.88;100.00
62031;BME280;62035;52.094;5.112;2023-04-10T11:59:07;101355.56;;;17.73;100.00
62031;BME280;62035;52.094;5.112;2023-04-10T12:01:36;101340.44;;;18.16;100.00
62031;BME280;62035;52.094;5.112;2023-04-10T12:04:12;101341.84;;;18.27;100.00
62031;BME280;62035;52.094;5.112;2023-04-10T12:06:43;101335.63;;;18.26;100.00
62031;BME280;62035;52.094;5.112;2023-04-10T12:09:12;101331.34;;;18.32;100.00
62031;BME280;62035;52.094;5.112;2023-04-10T12:11:49;101330.13;;;17.76;100.00
62031;BME280;62035;52.094;5.112;2023-04-10T12:14:18;101324.47;;;18.15;100.00
62031;BME280;62035;52.094;5.112;2023-04-10T12:16:47;101316.09;;;18.10;100.00
62031;BME280;62035;52.094;5.112;2023-04-10T12:19:15;101313.34;;;17.88;100.00
62031;BME280;62035;52.094;5.112;2023-04-10T12:21:44;101303.09;;;18.13;100.00
62031;BME280;62035;52.094;5.112;2023-04-10T12:24:12;101306.22;;;17.20;100.00
62031;BME280;62035;52.094;5.112;2023-04-10T12:27:01;101295.63;;;17.42;100.00
62031;BME280;62035;52.094;5.112;2023-04-10T12:29:29;101288.94;;;17.38;100.00
62031;BME280;62035;52.094;5.112;2023-04-10T12:31:56;101281.00;;;17.21;100.00
62031;BME280;62035;52.094;5.112;2023-04-10T12:34:24;101279.34;;;17.20;100.00
62031;BME280;62035;52.094;5.112;2023-04-10T12:36:52;101267.06;;;17.03;100.00
62031;BME280;62035;52.094;5.112;2023-04-10T12:39:23;101260.06;;;17.17;100.00
62031;BME280;62035;52.094;5.112;2023-04-10T12:41:51;101249.13;;;17.33;100.00
62031;BME280;62035;52.094;5.112;2023-04-10T12:44:20;101252.25;;;17.07;100.00
62031;BME280;62035;52.094;5.112;2023-04-10T12:46:48;101247.34;;;16.88;100.00
62031;BME280;62035;52.094;5.112;2023-04-10T12:49:16;101255.41;;;16.88;100.00
62031;BME280;62035;52.094;5.112;2023-04-10T12:51:46;101241.09;;;16.73;100.00
62031;BME280;62035;52.094;5.112;2023-04-10T12:54:28;101236.41;;;16.75;100.00
62031;BME280;62035;52.094;5.112;2023-04-10T12:56:57;101241.13;;;17.10;100.00
62031;BME280;62035;52.094;5.112;2023-04-10T12:59:28;101237.06;;;16.91;100.00
62031;BME280;62035;52.094;5.112;2023-04-10T13:01:56;101241.84;;;17.04;100.00